sensor_id;sensor_type;location;lat;lon;timestamp;P1;durP1;ratioP1;P2;durP2;ratioP2
572;SDS011;271;51.114;13.780;2023-06-05T00:01:32;17.53;;;3.40;;
572;SDS011;271;51.114;13.780;2023-06-05T00:04:21;18.90;;;4.03;;
572;SDS011;271;51.114;13.780;2023-06-05T00:07:10;16.93;;;2.97;;
572;SDS011;271;51.114;13.780;2023-06-05T00:09:57;17.10;;;3.30;;
572;SDS011;271;51.114;13.780;2023-06-05T00:12:46;19.80;;;4.13;;
572;SDS011;271;51.114;13.780;2023-06-05T00:15:33;16.93;;;2.93;;
572;SDS011;271;51.114;13.780;2023-06-05T00:18:23;18.30;;;3.40;;
572;SDS011;271;51.114;13.780;2023-06-05T00:21:13;17.10;;;3.03;;
572;SDS011;271;51.114;13.780;2023-06-05T00:24:01;16.00;;;2.60;;
572;SDS011;271;51.114;13.780;2023-06-05T00:26:49;17.53;;;2.53;;
572;SDS011;271;51.114;13.780;2023-06-05T00:29:36;16.33;;;2.73;;
572;SDS011;271;51.114;13.780;2023-06-05T00:32:24;17.07;;;2.93;;
572;SDS011;271;51.114;13.780;2023-06-05T00:35:12;16.60;;;3.33;;
572;SDS011;271;51.114;13.780;2023-06-05T00:38:01;18.27;;;6.20;;
572;SDS011;271;51.114;13.780;2023-06-05T00:40:49;16.33;;;2.60;;
572;SDS011;271;51.114;13.780;2023-06-05T00:43:36;15.50;;;2.50;;
572;SDS011;271;51.114;13.780;2023-06-05T00:46:24;19.60;;;10.07;;
572;SDS011;271;51.114;13.780;2023-06-05T00:49:13;27.23;;;24.53;;
572;SDS011;271;51.114;13.780;2023-06-05T00:52:01;27.30;;;18.07;;
572;SDS011;271;51.114;13.780;2023-06-05T00:54:51;24.10;;;17.00;;
572;SDS011;271;51.114;13.780;2023-06-05T00:57:38;23.67;;;14.00;;
572;SDS011;271;51.114;13.780;2023-06-05T01:00:26;21.27;;;7.80;;
572;SDS011;271;51.114;13.780;2023-06-05T01:03:14;21.43;;;9.80;;
572;SDS011;271;51.114;13.780;2023-06-05T01:06:02;22.10;;;9.23;;
572;SDS011;271;51.114;13.780;2023-06-05T01:08:50;20.77;;;6.03;;
572;SDS011;271;51.114;13.780;2023-06-05T01:11:40;22.93;;;5.20;;
572;SDS011;271;51.114;13.780;2023-06-05T01:14:33;18.80;;;5.10;;
572;SDS011;271;51.114;13.780;2023-06-05T01:17:24;19.10;;;3.90;;
572;SDS011;271;51.114;13.780;2023-06-05T01:20:14;18.57;;;4.10;;
572;SDS011;271;51.114;13.780;2023-06-05T01:23:07;18.80;;;5.03;;
572;SDS011;271;51.114;13.780;2023-06-05T01:25:55;18.57;;;3.83;;
572;SDS011;271;51.114;13.780;2023-06-05T01:28:47;17.40;;;2.50;;
572;SDS011;271;51.114;13.780;2023-06-05T01:31:36;16.90;;;2.07;;
572;SDS011;271;51.114;13.780;2023-06-05T01:34:27;18.27;;;2.53;;
572;SDS011;271;51.114;13.780;2023-06-05T01:37:15;17.50;;;2.57;;
572;SDS011;271;51.114;13.780;2023-06-05T01:40:06;17.20;;;2.63;;
572;SDS011;271;51.114;13.780;2023-06-05T01:42:57;17.30;;;2.53;;
572;SDS011;271;51.114;13.780;2023-06-05T01:45:48;18.73;;;2.63;;
572;SDS011;271;51.114;13.780;2023-06-05T01:48:36;17.07;;;2.17;;
572;SDS011;271;51.114;13.780;2023-06-05T01:51:24;16.30;;;2.27;;
572;SDS011;271;51.114;13.780;2023-06-05T01:54:12;17.00;;;2.17;;
572;SDS011;271;51.114;13.780;2023-06-05T01:57:03;16.87;;;2.20;;
572;SDS011;271;51.114;13.780;2023-06-05T01:59:50;16.98;;;2.35;;
572;SDS011;271;51.114;13.780;2023-06-05T02:02:39;15.30;;;1.80;;
572;SDS011;271;51.114;13.780;2023-06-05T02:05:27;16.73;;;1.90;;
572;SDS011;271;51.114;13.780;2023-06-05T02:08:15;18.02;;;2.25;;
572;SDS011;271;51.114;13.780;2023-06-05T02:11:05;15.63;;;2.40;;
572;SDS011;271;51.114;13.780;2023-06-05T02:13:57;15.10;;;1.80;;
572;SDS011;271;51.114;13.780;2023-06-05T02:16:45;16.67;;;2.70;;
572;SDS011;271;51.114;13.780;2023-06-05T02:19:34;19.93;;;3.00;;
572;SDS011;271;51.114;13.780;2023-06-05T02:22:21;15.70;;;2.17;;
572;SDS011;271;51.114;13.780;2023-06-05T02:25:10;17.40;;;2.40;;
572;SDS011;271;51.114;13.780;2023-06-05T02:27:58;16.00;;;2.00;;
572;SDS011;271;51.114;13.780;2023-06-05T02:30:47;16.92;;;2.30;;
572;SDS011;271;51.114;13.780;2023-06-05T02:33:35;15.37;;;2.10;;
572;SDS011;271;51.114;13.780;2023-06-05T02:36:23;16.60;;;2.90;;
572;SDS011;271;51.114;13.780;2023-06-05T02:39:11;15.67;;;2.20;;
572;SDS011;271;51.114;13.780;2023-06-05T02:41:59;16.20;;;2.13;;
572;SDS011;271;51.114;13.780;2023-06-05T02:44:47;16.93;;;2.20;;
572;SDS011;271;51.114;13.780;2023-06-05T02:47:36;15.27;;;1.87;;
572;SDS011;271;51.114;13.780;2023-06-05T02:50:23;15.27;;;2.10;;
572;SDS011;271;51.114;13.780;2023-06-05T02:53:11;15.20;;;2.40;;
572;SDS011;271;51.114;13.780;2023-06-05T02:56:01;16.00;;;2.80;;
572;SDS011;271;51.114;13.780;2023-06-05T02:58:49;16.60;;;2.47;;
572;SDS011;271;51.114;13.780;2023-06-05T03:01:37;15.50;;;2.60;;
572;SDS011;271;51.114;13.780;2023-06-05T03:04:30;15.07;;;2.47;;
572;SDS011;271;51.114;13.780;2023-06-05T03:07:19;17.30;;;2.17;;
572;SDS011;271;51.114;13.780;2023-06-05T03:10:08;19.30;;;2.23;;
572;SDS011;271;51.114;13.780;2023-06-05T03:12:56;15.47;;;2.40;;
572;SDS011;271;51.114;13.780;2023-06-05T03:15:44;16.20;;;2.30;;
572;SDS011;271;51.114;13.780;2023-06-05T03:18:32;15.53;;;2.37;;
572;SDS011;271;51.114;13.780;2023-06-05T03:21:21;20.63;;;2.80;;
572;SDS011;271;51.114;13.780;2023-06-05T03:24:09;16.80;;;2.60;;
572;SDS011;271;51.114;13.780;2023-06-05T03:26:58;15.77;;;2.00;;
572;SDS011;271;51.114;13.780;2023-06-05T03:29:46;15.90;;;2.27;;
572;SDS011;271;51.114;13.780;2023-06-05T03:32:34;17.33;;;3.03;;
572;SDS011;271;51.114;13.780;2023-06-05T03:35:21;14.90;;;2.00;;
572;SDS011;271;51.114;13.780;2023-06-05T03:38:11;15.17;;;2.00;;
572;SDS011;271;51.114;13.780;2023-06-05T03:40:58;14.93;;;1.90;;
572;SDS011;271;51.114;13.780;2023-06-05T03:43:46;16.47;;;2.40;;
572;SDS011;271;51.114;13.780;2023-06-05T03:46:35;15.60;;;2.00;;
572;SDS011;271;51.114;13.780;2023-06-05T03:49:23;15.37;;;2.17;;
572;SDS011;271;51.114;13.780;2023-06-05T03:52:11;16.30;;;2.27;;
572;SDS011;271;51.114;13.780;2023-06-05T03:55:02;16.63;;;2.10;;
572;SDS011;271;51.114;13.780;2023-06-05T03:57:52;16.17;;;2.03;;
572;SDS011;271;51.114;13.780;2023-06-05T04:00:40;15.87;;;2.30;;
572;SDS011;271;51.114;13.780;2023-06-05T04:03:28;16.40;;;2.30;;
572;SDS011;271;51.114;13.780;2023-06-05T04:06:15;17.97;;;2.20;;
572;SDS011;271;51.114;13.780;2023-06-05T04:09:03;15.17;;;2.17;;
572;SDS011;271;51.114;13.780;2023-06-05T04:11:57;15.60;;;2.13;;
572;SDS011;271;51.114;13.780;2023-06-05T04:14:45;16.40;;;2.67;;
572;SDS011;271;51.114;13.780;2023-06-05T04:17:33;16.60;;;2.33;;
572;SDS011;271;51.114;13.780;2023-06-05T04:20:22;15.83;;;2.30;;
572;SDS011;271;51.114;13.780;2023-06-05T04:23:10;16.27;;;2.20;;
572;SDS011;271;51.114;13.780;2023-06-05T04:25:58;15.67;;;2.20;;
572;SDS011;271;51.114;13.780;2023-06-05T04:28:47;15.33;;;2.13;;
572;SDS011;271;51.114;13.780;2023-06-05T04:31:36;15.77;;;2.20;;
572;SDS011;271;51.114;13.780;2023-06-05T04:34:26;15.17;;;2.27;;
572;SDS011;271;51.114;13.780;2023-06-05T04:37:14;16.23;;;2.87;;
572;SDS011;271;51.114;13.780;2023-06-05T04:40:02;16.60;;;2.40;;
572;SDS011;271;51.114;13.780;2023-06-05T04:42:52;17.33;;;2.60;;
572;SDS011;271;51.114;13.780;2023-06-05T04:45:41;17.30;;;2.77;;
572;SDS011;271;51.114;13.780;2023-06-05T04:48:29;15.97;;;2.40;;
572;SDS011;271;51.114;13.780;2023-06-05T04:51:17;15.67;;;2.30;;
572;SDS011;271;51.114;13.780;2023-06-05T04:54:04;16.30;;;2.73;;
572;SDS011;271;51.114;13.780;2023-06-05T04:56:52;16.50;;;2.13;;
572;SDS011;271;51.114;13.780;2023-06-05T04:59:40;16.60;;;2.17;;
572;SDS011;271;51.114;13.780;2023-06-05T05:02:29;17.33;;;2.30;;
572;SDS011;271;51.114;13.780;2023-06-05T05:05:17;15.70;;;2.27;;
572;SDS011;271;51.114;13.780;2023-06-05T05:08:05;16.90;;;2.40;;
572;SDS011;271;51.114;13.780;2023-06-05T05:10:53;16.00;;;2.17;;
572;SDS011;271;51.114;13.780;2023-06-05T05:13:41;16.03;;;2.50;;
572;SDS011;271;51.114;13.780;2023-06-05T05:16:30;15.63;;;2.50;;
572;SDS011;271;51.114;13.780;2023-06-05T05:19:20;16.17;;;2.10;;
572;SDS011;271;51.114;13.780;2023-06-05T05:22:07;18.17;;;2.80;;
572;SDS011;271;51.114;13.780;2023-06-05T05:24:55;16.47;;;2.60;;
572;SDS011;271;51.114;13.780;2023-06-05T05:27:43;20.23;;;3.23;;
572;SDS011;271;51.114;13.780;2023-06-05T05:30:30;15.80;;;2.60;;
572;SDS011;271;51.114;13.780;2023-06-05T05:33:18;15.93;;;2.73;;
572;SDS011;271;51.114;13.780;2023-06-05T05:36:08;19.40;;;3.37;;
572;SDS011;271;51.114;13.780;2023-06-05T05:38:56;17.37;;;2.93;;
572;SDS011;271;51.114;13.780;2023-06-05T05:41:43;17.40;;;2.90;;
572;SDS011;271;51.114;13.780;2023-06-05T05:44:31;16.00;;;2.70;;
572;SDS011;271;51.114;13.780;2023-06-05T05:47:19;17.47;;;2.60;;
572;SDS011;271;51.114;13.780;2023-06-05T05:50:07;15.60;;;2.87;;
572;SDS011;271;51.114;13.780;2023-06-05T05:52:57;17.50;;;3.00;;
572;SDS011;271;51.114;13.780;2023-06-05T05:55:44;17.20;;;2.67;;
572;SDS011;271;51.114;13.780;2023-06-05T05:58:32;15.90;;;3.13;;
572;SDS011;271;51.114;13.780;2023-06-05T06:01:20;17.50;;;2.43;;
572;SDS011;271;51.114;13.780;2023-06-05T06:04:08;17.30;;;2.80;;
572;SDS011;271;51.114;13.780;2023-06-05T06:06:56;15.63;;;2.83;;
572;SDS011;271;51.114;13.780;2023-06-05T06:09:45;16.50;;;2.80;;
572;SDS011;271;51.114;13.780;2023-06-05T06:12:33;16.87;;;2.87;;
572;SDS011;271;51.114;13.780;2023-06-05T06:15:20;16.80;;;3.00;;
572;SDS011;271;51.114;13.780;2023-06-05T06:18:08;15.40;;;2.80;;
572;SDS011;271;51.114;13.780;2023-06-05T06:20:56;15.60;;;2.40;;
572;SDS011;271;51.114;13.780;2023-06-05T06:23:44;14.83;;;2.43;;
572;SDS011;271;51.114;13.780;2023-06-05T06:26:33;15.27;;;2.40;;
572;SDS011;271;51.114;13.780;2023-06-05T06:29:23;15.47;;;2.70;;
572;SDS011;271;51.114;13.780;2023-06-05T06:32:13;15.60;;;2.53;;
572;SDS011;271;51.114;13.780;2023-06-05T06:35:01;17.20;;;2.20;;
572;SDS011;271;51.114;13.780;2023-06-05T06:37:52;15.23;;;2.40;;
572;SDS011;271;51.114;13.780;2023-06-05T06:40:40;16.70;;;2.70;;
572;SDS011;271;51.114;13.780;2023-06-05T06:43:29;16.13;;;2.50;;
572;SDS011;271;51.114;13.780;2023-06-05T06:46:17;15.07;;;2.37;;
572;SDS011;271;51.114;13.780;2023-06-05T06:49:04;14.83;;;2.13;;
572;SDS011;271;51.114;13.780;2023-06-05T06:51:53;14.93;;;2.07;;
572;SDS011;271;51.114;13.780;2023-06-05T06:54:41;14.53;;;2.10;;
572;SDS011;271;51.114;13.780;2023-06-05T06:57:28;14.43;;;2.33;;
572;SDS011;271;51.114;13.780;2023-06-05T07:00:17;18.40;;;2.97;;
572;SDS011;271;51.114;13.780;2023-06-05T07:03:06;16.03;;;2.40;;
572;SDS011;271;51.114;13.780;2023-06-05T07:05:53;15.30;;;2.20;;
572;SDS011;271;51.114;13.780;2023-06-05T07:08:41;14.90;;;1.87;;
572;SDS011;271;51.114;13.780;2023-06-05T07:11:29;15.37;;;2.20;;
572;SDS011;271;51.114;13.780;2023-06-05T07:14:17;15.13;;;2.30;;
572;SDS011;271;51.114;13.780;2023-06-05T07:17:06;15.10;;;2.67;;
572;SDS011;271;51.114;13.780;2023-06-05T07:19:54;15.27;;;2.10;;
572;SDS011;271;51.114;13.780;2023-06-05T07:22:42;14.17;;;1.90;;
572;SDS011;271;51.114;13.780;2023-06-05T07:25:31;15.70;;;2.60;;
572;SDS011;271;51.114;13.780;2023-06-05T07:28:19;16.90;;;2.07;;
572;SDS011;271;51.114;13.780;2023-06-05T07:31:07;14.90;;;2.30;;
572;SDS011;271;51.114;13.780;2023-06-05T07:33:57;15.00;;;2.67;;
572;SDS011;271;51.114;13.780;2023-06-05T07:36:45;15.43;;;2.03;;
572;SDS011;271;51.114;13.780;2023-06-05T07:39:34;14.17;;;2.10;;
572;SDS011;271;51.114;13.780;2023-06-05T07:42:21;14.20;;;2.17;;
572;SDS011;271;51.114;13.780;2023-06-05T07:45:09;15.80;;;2.20;;
572;SDS011;271;51.114;13.780;2023-06-05T07:47:57;14.67;;;2.17;;
572;SDS011;271;51.114;13.780;2023-06-05T07:50:46;15.10;;;2.43;;
572;SDS011;271;51.114;13.780;2023-06-05T07:53:34;14.10;;;1.93;;
572;SDS011;271;51.114;13.780;2023-06-05T07:56:22;14.90;;;2.53;;
572;SDS011;271;51.114;13.780;2023-06-05T07:59:11;14.70;;;2.50;;
572;SDS011;271;51.114;13.780;2023-06-05T08:02:00;14.73;;;2.27;;
572;SDS011;271;51.114;13.780;2023-06-05T08:04:47;15.07;;;2.60;;
572;SDS011;271;51.114;13.780;2023-06-05T08:07:36;14.77;;;2.37;;
572;SDS011;271;51.114;13.780;2023-06-05T08:10:24;15.80;;;2.60;;
572;SDS011;271;51.114;13.780;2023-06-05T08:13:12;15.87;;;2.83;;
572;SDS011;271;51.114;13.780;2023-06-05T08:15:59;14.80;;;2.40;;
572;SDS011;271;51.114;13.780;2023-06-05T08:18:48;16.27;;;3.00;;
572;SDS011;271;51.114;13.780;2023-06-05T08:21:35;15.10;;;2.50;;
572;SDS011;271;51.114;13.780;2023-06-05T08:24:25;16.00;;;2.33;;
572;SDS011;271;51.114;13.780;2023-06-05T08:27:14;14.93;;;2.80;;
572;SDS011;271;51.114;13.780;2023-06-05T08:30:02;16.37;;;2.70;;
572;SDS011;271;51.114;13.780;2023-06-05T08:32:50;15.60;;;2.60;;
572;SDS011;271;51.114;13.780;2023-06-05T08:35:39;15.10;;;2.70;;
572;SDS011;271;51.114;13.780;2023-06-05T08:38:28;15.53;;;3.13;;
572;SDS011;271;51.114;13.780;2023-06-05T08:41:17;15.57;;;3.03;;
572;SDS011;271;51.114;13.780;2023-06-05T08:44:05;15.60;;;2.40;;
572;SDS011;271;51.114;13.780;2023-06-05T08:46:53;15.00;;;2.67;;
572;SDS011;271;51.114;13.780;2023-06-05T08:49:47;15.93;;;2.87;;
572;SDS011;271;51.114;13.780;2023-06-05T08:52:39;16.80;;;2.83;;
572;SDS011;271;51.114;13.780;2023-06-05T08:55:31;15.50;;;2.90;;
572;SDS011;271;51.114;13.780;2023-06-05T08:58:20;15.50;;;2.77;;
572;SDS011;271;51.114;13.780;2023-06-05T09:01:09;19.83;;;2.87;;
572;SDS011;271;51.114;13.780;2023-06-05T09:03:56;15.03;;;3.00;;
572;SDS011;271;51.114;13.780;2023-06-05T09:06:45;16.20;;;3.17;;
572;SDS011;271;51.114;13.780;2023-06-05T09:09:33;15.83;;;2.80;;
572;SDS011;271;51.114;13.780;2023-06-05T09:12:21;16.53;;;2.70;;
572;SDS011;271;51.114;13.780;2023-06-05T09:15:21;15.40;;;2.33;;
572;SDS011;271;51.114;13.780;2023-06-05T09:18:11;15.83;;;2.90;;
572;SDS011;271;51.114;13.780;2023-06-05T09:21:01;16.20;;;2.83;;
572;SDS011;271;51.114;13.780;2023-06-05T09:24:11;16.17;;;3.03;;
572;SDS011;271;51.114;13.780;2023-06-05T09:27:01;15.67;;;3.10;;
572;SDS011;271;51.114;13.780;2023-06-05T09:29:51;14.57;;;2.67;;
572;SDS011;271;51.114;13.780;2023-06-05T09:32:51;18.07;;;3.20;;
572;SDS011;271;51.114;13.780;2023-06-05T09:35:38;15.17;;;2.87;;
572;SDS011;271;51.114;13.780;2023-06-05T09:38:26;16.60;;;2.90;;
572;SDS011;271;51.114;13.780;2023-06-05T09:41:14;16.30;;;3.33;;
572;SDS011;271;51.114;13.780;2023-06-05T09:44:06;15.40;;;2.60;;
572;SDS011;271;51.114;13.780;2023-06-05T09:46:55;16.80;;;3.27;;
572;SDS011;271;51.114;13.780;2023-06-05T09:49:49;15.20;;;2.83;;
572;SDS011;271;51.114;13.780;2023-06-05T09:52:36;17.07;;;3.13;;
572;SDS011;271;51.114;13.780;2023-06-05T09:55:26;14.90;;;2.67;;
572;SDS011;271;51.114;13.780;2023-06-05T09:58:15;14.60;;;2.53;;
572;SDS011;271;51.114;13.780;2023-06-05T10:01:05;17.10;;;3.27;;
572;SDS011;271;51.114;13.780;2023-06-05T10:03:56;14.67;;;2.70;;
572;SDS011;271;51.114;13.780;2023-06-05T10:06:46;16.67;;;3.60;;
572;SDS011;271;51.114;13.780;2023-06-05T10:09:35;15.87;;;2.97;;
572;SDS011;271;51.114;13.780;2023-06-05T10:12:23;15.10;;;2.50;;
572;SDS011;271;51.114;13.780;2023-06-05T10:15:13;16.30;;;2.97;;
572;SDS011;271;51.114;13.780;2023-06-05T10:18:00;16.13;;;3.30;;
572;SDS011;271;51.114;13.780;2023-06-05T10:20:50;15.43;;;3.03;;
572;SDS011;271;51.114;13.780;2023-06-05T10:23:40;16.00;;;3.17;;
572;SDS011;271;51.114;13.780;2023-06-05T10:33:19;15.93;;;3.23;;
572;SDS011;271;51.114;13.780;2023-06-05T10:36:18;14.70;;;2.70;;
572;SDS011;271;51.114;13.780;2023-06-05T10:39:27;15.17;;;2.83;;
572;SDS011;271;51.114;13.780;2023-06-05T10:42:23;14.50;;;2.40;;
572;SDS011;271;51.114;13.780;2023-06-05T10:45:11;15.70;;;2.53;;
572;SDS011;271;51.114;13.780;2023-06-05T10:47:59;14.93;;;2.80;;
572;SDS011;271;51.114;13.780;2023-06-05T10:50:47;16.03;;;2.70;;
572;SDS011;271;51.114;13.780;2023-06-05T10:53:41;14.83;;;2.43;;
572;SDS011;271;51.114;13.780;2023-06-05T10:59:44;15.17;;;3.20;;
572;SDS011;271;51.114;13.780;2023-06-05T11:02:32;16.30;;;3.03;;
572;SDS011;271;51.114;13.780;2023-06-05T11:05:32;14.83;;;2.63;;
572;SDS011;271;51.114;13.780;2023-06-05T11:08:21;14.90;;;2.57;;
572;SDS011;271;51.114;13.780;2023-06-05T11:11:09;15.87;;;2.80;;
572;SDS011;271;51.114;13.780;2023-06-05T11:13:59;14.67;;;2.40;;
572;SDS011;271;51.114;13.780;2023-06-05T11:16:47;15.17;;;2.90;;
572;SDS011;271;51.114;13.780;2023-06-05T11:19:35;15.20;;;2.73;;
572;SDS011;271;51.114;13.780;2023-06-05T11:22:24;14.93;;;2.60;;
572;SDS011;271;51.114;13.780;2023-06-05T11:25:25;15.50;;;3.03;;
572;SDS011;271;51.114;13.780;2023-06-05T11:28:14;14.97;;;3.00;;
572;SDS011;271;51.114;13.780;2023-06-05T11:31:29;15.03;;;2.70;;
572;SDS011;271;51.114;13.780;2023-06-05T11:34:18;14.80;;;2.60;;
572;SDS011;271;51.114;13.780;2023-06-05T11:37:15;14.47;;;2.50;;
572;SDS011;271;51.114;13.780;2023-06-05T11:40:05;14.60;;;2.50;;
572;SDS011;271;51.114;13.780;2023-06-05T11:43:01;15.40;;;3.20;;
572;SDS011;271;51.114;13.780;2023-06-05T11:45:55;15.33;;;2.47;;
572;SDS011;271;51.114;13.780;2023-06-05T11:48:52;18.13;;;3.17;;
572;SDS011;271;51.114;13.780;2023-06-05T11:51:39;18.63;;;2.83;;
572;SDS011;271;51.114;13.780;2023-06-05T11:54:30;16.43;;;2.73;;
572;SDS011;271;51.114;13.780;2023-06-05T11:57:20;15.50;;;2.80;;
572;SDS011;271;51.114;13.780;2023-06-05T12:00:13;15.47;;;2.80;;
572;SDS011;271;51.114;13.780;2023-06-05T12:03:02;15.43;;;2.70;;
572;SDS011;271;51.114;13.780;2023-06-05T12:05:52;15.77;;;3.00;;
572;SDS011;271;51.114;13.780;2023-06-05T12:08:40;14.77;;;2.60;;
572;SDS011;271;51.114;13.780;2023-06-05T12:11:28;15.00;;;2.73;;
572;SDS011;271;51.114;13.780;2023-06-05T12:14:27;15.47;;;2.70;;
572;SDS011;271;51.114;13.780;2023-06-05T12:17:23;15.40;;;3.00;;
572;SDS011;271;51.114;13.780;2023-06-05T12:20:11;15.13;;;2.80;;
572;SDS011;271;51.114;13.780;2023-06-05T12:23:00;17.17;;;2.80;;
572;SDS011;271;51.114;13.780;2023-06-05T12:25:57;15.80;;;2.87;;
572;SDS011;271;51.114;13.780;2023-06-05T12:28:45;14.70;;;2.80;;
572;SDS011;271;51.114;13.780;2023-06-05T12:31:35;15.00;;;2.70;;
572;SDS011;271;51.114;13.780;2023-06-05T12:34:38;14.60;;;2.87;;
572;SDS011;271;51.114;13.780;2023-06-05T12:37:31;16.40;;;3.20;;
572;SDS011;271;51.114;13.780;2023-06-05T12:40:24;15.70;;;3.10;;
572;SDS011;271;51.114;13.780;2023-06-05T12:43:18;15.87;;;2.97;;
572;SDS011;271;51.114;13.780;2023-06-05T12:46:06;16.07;;;3.00;;
572;SDS011;271;51.114;13.780;2023-06-05T12:48:54;15.00;;;2.70;;
572;SDS011;271;51.114;13.780;2023-06-05T12:51:43;15.37;;;3.07;;
572;SDS011;271;51.114;13.780;2023-06-05T12:54:31;15.03;;;3.00;;
572;SDS011;271;51.114;13.780;2023-06-05T12:57:20;15.73;;;2.90;;
572;SDS011;271;51.114;13.780;2023-06-05T13:00:08;15.20;;;3.03;;
572;SDS011;271;51.114;13.780;2023-06-05T13:03:02;15.40;;;3.10;;
572;SDS011;271;51.114;13.780;2023-06-05T13:05:53;17.70;;;3.00;;
572;SDS011;271;51.114;13.780;2023-06-05T13:08:41;17.67;;;3.40;;
572;SDS011;271;51.114;13.780;2023-06-05T13:11:28;17.33;;;3.17;;
572;SDS011;271;51.114;13.780;2023-06-05T13:14:24;14.77;;;2.90;;
572;SDS011;271;51.114;13.780;2023-06-05T13:17:12;15.40;;;3.10;;
572;SDS011;271;51.114;13.780;2023-06-05T13:20:00;15.30;;;3.00;;
572;SDS011;271;51.114;13.780;2023-06-05T13:22:52;14.30;;;2.40;;
572;SDS011;271;51.114;13.780;2023-06-05T13:25:39;14.90;;;2.80;;
572;SDS011;271;51.114;13.780;2023-06-05T13:28:27;16.90;;;3.10;;
572;SDS011;271;51.114;13.780;2023-06-05T13:31:16;16.07;;;3.30;;
572;SDS011;271;51.114;13.780;2023-06-05T13:34:04;14.87;;;2.80;;
572;SDS011;271;51.114;13.780;2023-06-05T13:36:54;15.00;;;3.13;;
572;SDS011;271;51.114;13.780;2023-06-05T13:39:43;14.83;;;2.90;;
572;SDS011;271;51.114;13.780;2023-06-05T13:42:40;15.47;;;3.53;;
572;SDS011;271;51.114;13.780;2023-06-05T13:45:28;14.20;;;2.83;;
572;SDS011;271;51.114;13.780;2023-06-05T13:48:17;15.47;;;2.93;;
572;SDS011;271;51.114;13.780;2023-06-05T13:51:05;16.53;;;3.00;;
572;SDS011;271;51.114;13.780;2023-06-05T13:53:56;14.50;;;2.80;;
572;SDS011;271;51.114;13.780;2023-06-05T13:56:43;15.20;;;2.70;;
572;SDS011;271;51.114;13.780;2023-06-05T13:59:31;14.67;;;3.10;;
572;SDS011;271;51.114;13.780;2023-06-05T14:02:19;14.90;;;2.93;;
572;SDS011;271;51.114;13.780;2023-06-05T14:05:10;17.27;;;3.20;;
572;SDS011;271;51.114;13.780;2023-06-05T14:07:58;16.47;;;3.80;;
572;SDS011;271;51.114;13.780;2023-06-05T14:10:46;15.70;;;3.20;;
572;SDS011;271;51.114;13.780;2023-06-05T14:13:34;16.20;;;3.47;;
572;SDS011;271;51.114;13.780;2023-06-05T14:16:22;15.30;;;2.77;;
572;SDS011;271;51.114;13.780;2023-06-05T14:19:10;15.33;;;3.27;;
572;SDS011;271;51.114;13.780;2023-06-05T14:21:59;15.20;;;2.80;;
572;SDS011;271;51.114;13.780;2023-06-05T14:24:47;14.93;;;2.97;;
572;SDS011;271;51.114;13.780;2023-06-05T14:27:35;15.20;;;2.87;;
572;SDS011;271;51.114;13.780;2023-06-05T14:30:23;15.67;;;3.07;;
572;SDS011;271;51.114;13.780;2023-06-05T14:33:15;14.80;;;3.20;;
572;SDS011;271;51.114;13.780;2023-06-05T14:36:05;16.17;;;3.37;;
572;SDS011;271;51.114;13.780;2023-06-05T14:38:54;16.53;;;3.20;;
572;SDS011;271;51.114;13.780;2023-06-05T14:41:42;15.80;;;3.40;;
572;SDS011;271;51.114;13.780;2023-06-05T14:44:30;15.30;;;3.43;;
572;SDS011;271;51.114;13.780;2023-06-05T14:47:17;15.27;;;3.17;;
572;SDS011;271;51.114;13.780;2023-06-05T14:50:05;15.00;;;2.77;;
572;SDS011;271;51.114;13.780;2023-06-05T14:52:54;16.80;;;3.90;;
572;SDS011;271;51.114;13.780;2023-06-05T14:55:44;16.70;;;3.87;;
572;SDS011;271;51.114;13.780;2023-06-05T14:58:32;14.43;;;2.83;;
572;SDS011;271;51.114;13.780;2023-06-05T15:01:20;15.60;;;3.23;;
572;SDS011;271;51.114;13.780;2023-06-05T15:04:07;15.10;;;3.17;;
572;SDS011;271;51.114;13.780;2023-06-05T15:06:55;15.87;;;2.80;;
572;SDS011;271;51.114;13.780;2023-06-05T15:09:43;16.30;;;3.13;;
572;SDS011;271;51.114;13.780;2023-06-05T15:12:32;14.80;;;3.00;;
572;SDS011;271;51.114;13.780;2023-06-05T15:15:20;15.30;;;3.17;;
572;SDS011;271;51.114;13.780;2023-06-05T15:18:09;15.20;;;2.60;;
572;SDS011;271;51.114;13.780;2023-06-05T15:20:56;15.37;;;3.43;;
572;SDS011;271;51.114;13.780;2023-06-05T15:23:44;14.50;;;2.30;;
572;SDS011;271;51.114;13.780;2023-06-05T15:26:32;16.50;;;2.90;;
572;SDS011;271;51.114;13.780;2023-06-05T15:29:24;16.30;;;3.30;;
572;SDS011;271;51.114;13.780;2023-06-05T15:32:15;15.20;;;2.93;;
572;SDS011;271;51.114;13.780;2023-06-05T15:35:12;15.10;;;2.93;;
572;SDS011;271;51.114;13.780;2023-06-05T15:37:59;18.43;;;3.00;;
572;SDS011;271;51.114;13.780;2023-06-05T15:40:50;15.57;;;3.00;;
572;SDS011;271;51.114;13.780;2023-06-05T15:43:38;15.63;;;3.27;;
572;SDS011;271;51.114;13.780;2023-06-05T15:46:30;16.10;;;2.40;;
572;SDS011;271;51.114;13.780;2023-06-05T15:49:17;15.40;;;2.60;;
572;SDS011;271;51.114;13.780;2023-06-05T15:52:06;17.00;;;2.60;;
572;SDS011;271;51.114;13.780;2023-06-05T15:54:55;17.50;;;2.80;;
572;SDS011;271;51.114;13.780;2023-06-05T15:57:42;16.70;;;3.00;;
572;SDS011;271;51.114;13.780;2023-06-05T16:00:31;16.20;;;2.33;;
572;SDS011;271;51.114;13.780;2023-06-05T16:03:23;15.60;;;2.60;;
572;SDS011;271;51.114;13.780;2023-06-05T16:06:11;17.23;;;3.20;;
572;SDS011;271;51.114;13.780;2023-06-05T16:08:59;19.13;;;2.97;;
572;SDS011;271;51.114;13.780;2023-06-05T16:11:56;16.10;;;3.20;;
572;SDS011;271;51.114;13.780;2023-06-05T16:14:46;16.20;;;2.77;;
572;SDS011;271;51.114;13.780;2023-06-05T16:17:34;16.77;;;3.07;;
572;SDS011;271;51.114;13.780;2023-06-05T16:20:23;14.93;;;2.50;;
572;SDS011;271;51.114;13.780;2023-06-05T16:23:10;15.33;;;2.70;;
572;SDS011;271;51.114;13.780;2023-06-05T16:25:58;15.20;;;2.93;;
572;SDS011;271;51.114;13.780;2023-06-05T16:28:46;15.50;;;3.00;;
572;SDS011;271;51.114;13.780;2023-06-05T16:31:34;15.60;;;2.70;;
572;SDS011;271;51.114;13.780;2023-06-05T16:34:22;16.23;;;2.90;;
572;SDS011;271;51.114;13.780;2023-06-05T16:37:11;18.63;;;2.47;;
572;SDS011;271;51.114;13.780;2023-06-05T16:40:02;16.90;;;3.30;;
572;SDS011;271;51.114;13.780;2023-06-05T16:42:49;14.87;;;2.60;;
572;SDS011;271;51.114;13.780;2023-06-05T16:45:37;16.20;;;3.40;;
572;SDS011;271;51.114;13.780;2023-06-05T16:48:25;15.60;;;2.83;;
572;SDS011;271;51.114;13.780;2023-06-05T16:51:13;15.63;;;3.57;;
572;SDS011;271;51.114;13.780;2023-06-05T16:54:04;15.40;;;2.60;;
572;SDS011;271;51.114;13.780;2023-06-05T16:56:52;16.10;;;2.90;;
572;SDS011;271;51.114;13.780;2023-06-05T16:59:40;16.30;;;2.90;;
572;SDS011;271;51.114;13.780;2023-06-05T17:02:27;15.97;;;3.03;;
572;SDS011;271;51.114;13.780;2023-06-05T17:05:15;15.10;;;2.40;;
572;SDS011;271;51.114;13.780;2023-06-05T17:08:03;15.60;;;2.67;;
572;SDS011;271;51.114;13.780;2023-06-05T17:10:53;14.60;;;2.20;;
572;SDS011;271;51.114;13.780;2023-06-05T17:13:41;17.70;;;3.23;;
572;SDS011;271;51.114;13.780;2023-06-05T17:16:28;14.83;;;2.93;;
572;SDS011;271;51.114;13.780;2023-06-05T17:19:16;15.23;;;2.87;;
572;SDS011;271;51.114;13.780;2023-06-05T17:22:05;17.37;;;2.70;;
572;SDS011;271;51.114;13.780;2023-06-05T17:24:52;22.93;;;3.13;;
572;SDS011;271;51.114;13.780;2023-06-05T17:27:45;18.50;;;3.87;;
572;SDS011;271;51.114;13.780;2023-06-05T17:30:33;16.70;;;2.87;;
572;SDS011;271;51.114;13.780;2023-06-05T17:33:22;20.33;;;3.40;;
572;SDS011;271;51.114;13.780;2023-06-05T17:36:09;16.00;;;3.40;;
572;SDS011;271;51.114;13.780;2023-06-05T17:38:57;18.43;;;3.47;;
572;SDS011;271;51.114;13.780;2023-06-05T17:41:45;18.03;;;4.20;;